createdAt,value
2022-08-19T07:13:25.098Z,29.35
2022-08-19T07:18:28.211Z,31.30
2022-08-19T07:23:31.519Z,22.48
2022-08-19T07:28:34.336Z,31.88
2022-08-19T07:33:37.677Z,19.38
2022-08-19T07:38:42.467Z,14.75
2022-08-19T07:43:47.927Z,13.95
2022-08-19T07:48:51.279Z,12.02
2022-08-19T07:53:53.500Z,12.00
2022-08-19T08:04:20.506Z,11.75
2022-08-19T08:09:27.231Z,11.23
2022-08-19T08:14:37.188Z,13.43
2022-08-19T08:19:42.071Z,10.55
2022-08-19T08:24:43.680Z,8.57
2022-08-19T08:29:46.022Z,11.75
2022-08-19T08:34:50.056Z,11.02
2022-08-19T08:39:55.448Z,12.75
2022-08-19T08:45:06.756Z,12.05
2022-08-19T08:50:39.123Z,8.70
2022-08-19T08:55:42.456Z,12.77
2022-08-19T09:00:48.680Z,13.43
2022-08-19T09:06:04.853Z,10.68
2022-08-19T09:11:44.963Z,11.15
2022-08-19T09:16:46.681Z,10.05
2022-08-19T09:21:49.044Z,9.60
2022-08-19T09:26:52.958Z,9.43
2022-08-19T09:31:54.700Z,7.82
2022-08-19T09:36:59.256Z,7.05
2022-08-19T09:42:00.875Z,9.40
2022-08-19T09:47:02.828Z,10.18
2022-08-19T09:52:04.709Z,6.57
2022-08-19T09:57:07.620Z,10.05
2022-08-19T10:02:11.321Z,7.45
2022-08-19T10:07:13.098Z,8.15
2022-08-19T10:12:17.882Z,4.72
2022-08-19T10:17:26.340Z,6.47
2022-08-19T10:22:29.142Z,8.27
2022-08-19T10:27:32.971Z,6.60
2022-08-19T10:32:35.008Z,11.75
2022-08-19T10:37:49.800Z,6.03
2022-08-19T10:42:58.865Z,4.63
2022-08-19T10:48:00.413Z,6.63
2022-08-19T10:53:09.678Z,4.43
2022-08-19T10:58:14.387Z,6.50
2022-08-19T11:03:15.970Z,3.80
2022-08-19T11:08:23.093Z,6.68
2022-08-19T11:13:26.204Z,4.15
2022-08-19T11:18:28.098Z,6.63
2022-08-19T11:23:29.796Z,6.18
2022-08-19T11:28:31.440Z,4.05
2022-08-19T11:33:33.755Z,5.70
